createdAt,value
2023-05-19T00:00:14.864Z,102302.60
2023-05-19T00:03:05.095Z,102301.60
2023-05-19T00:05:33.634Z,102302.00
2023-05-19T00:08:04.040Z,102300.80
2023-05-19T00:10:33.294Z,102297.80
2023-05-19T00:13:01.872Z,102302.00
2023-05-19T00:15:30.851Z,102298.80
2023-05-19T00:17:58.997Z,102296.20
2023-05-19T00:20:27.028Z,102297.80
2023-05-19T00:22:54.981Z,102301.40
2023-05-19T00:25:22.981Z,102296.40
2023-05-19T00:27:50.801Z,102300.20
2023-05-19T00:30:18.686Z,102299.60
2023-05-19T00:32:46.534Z,102296.20
2023-05-19T00:35:14.572Z,102299.20
2023-05-19T00:37:42.396Z,102291.60
2023-05-19T00:40:11.002Z,102300.40
2023-05-19T00:42:39.052Z,102295.60
2023-05-19T00:45:07.752Z,102296.60
2023-05-19T00:47:35.642Z,102299.60
2023-05-19T00:50:03.868Z,102299.20
2023-05-19T00:52:31.964Z,102299.00
2023-05-19T00:55:00.096Z,102299.80
2023-05-19T00:57:28.730Z,102297.40
2023-05-19T00:59:56.995Z,102298.60
2023-05-19T01:02:24.995Z,102299.60
2023-05-19T01:04:53.702Z,102301.60
2023-05-19T01:07:21.604Z,102302.20
2023-05-19T01:09:49.841Z,102297.40
2023-05-19T01:12:18.400Z,102297.40
2023-05-19T01:14:46.643Z,102294.00
2023-05-19T01:17:30.655Z,102290.20
2023-05-19T01:20:16.315Z,102288.60
2023-05-19T01:23:21.614Z,102294.00
2023-05-19T01:26:28.355Z,102293.40
2023-05-19T01:29:09.467Z,102293.20
2023-05-19T01:31:41.139Z,102297.40
2023-05-19T01:34:13.385Z,102293.40
2023-05-19T01:36:45.033Z,102292.00
2023-05-19T01:39:14.329Z,102292.40
2023-05-19T01:41:44.622Z,102285.00
2023-05-19T01:44:12.560Z,102285.80
2023-05-19T01:46:41.775Z,102290.60
2023-05-19T01:49:09.913Z,102286.40
2023-05-19T01:51:37.802Z,102293.60
2023-05-19T01:54:05.760Z,102293.60
2023-05-19T01:56:54.972Z,102291.00
2023-05-19T01:59:50.421Z,102289.00
2023-05-19T02:02:45.642Z,102286.00
2023-05-19T02:05:21.720Z,102289.80
2023-05-19T02:08:10.768Z,102282.80
2023-05-19T02:10:43.896Z,102284.00
2023-05-19T02:13:14.620Z,102284.40
2023-05-19T02:15:45.576Z,102284.20
2023-05-19T02:18:18.034Z,102278.00
2023-05-19T02:20:45.930Z,102273.00
2023-05-19T02:23:13.925Z,102274.40
2023-05-19T02:25:42.081Z,102277.40
2023-05-19T02:28:09.992Z,102275.60
2023-05-19T02:30:37.802Z,102275.00
2023-05-19T02:33:06.687Z,102276.20
2023-05-19T02:35:34.646Z,102278.20
2023-05-19T02:38:02.566Z,102273.00
2023-05-19T02:40:30.576Z,102270.60
2023-05-19T02:42:58.718Z,102268.80
2023-05-19T02:45:28.722Z,102263.60
2023-05-19T02:47:57.027Z,102263.40
2023-05-19T02:50:24.913Z,102263.80
2023-05-19T02:52:54.168Z,102263.80
2023-05-19T02:55:21.979Z,102258.80
2023-05-19T02:57:49.814Z,102259.80
2023-05-19T03:00:17.915Z,102258.00
2023-05-19T03:02:46.059Z,102260.00
2023-05-19T03:05:14.440Z,102253.60
2023-05-19T03:07:42.299Z,102261.60
2023-05-19T03:10:10.563Z,102261.20
2023-05-19T03:12:38.415Z,102269.20
2023-05-19T03:15:07.124Z,102264.80
2023-05-19T03:17:36.500Z,102261.60
2023-05-19T03:20:05.662Z,102267.80
2023-05-19T03:22:33.925Z,102269.20
2023-05-19T03:25:01.843Z,102264.00
2023-05-19T03:27:30.252Z,102260.80
2023-05-19T03:29:58.107Z,102261.40
2023-05-19T03:32:26.156Z,102261.60
2023-05-19T03:34:54.100Z,102259.40
2023-05-19T03:37:22.023Z,102259.20
2023-05-19T03:39:49.913Z,102265.20
2023-05-19T03:42:17.689Z,102267.20
2023-05-19T03:44:45.781Z,102266.80
2023-05-19T03:47:13.740Z,102269.40
2023-05-19T03:49:41.725Z,102271.00
2023-05-19T03:52:09.946Z,102271.40
2023-05-19T03:54:39.788Z,102271.20
2023-05-19T03:57:11.139Z,102269.40
2023-05-19T03:59:41.519Z,102270.20
2023-05-19T04:02:09.641Z,102270.40
2023-05-19T04:04:38.277Z,102266.40
2023-05-19T04:07:07.280Z,102264.20
2023-05-19T04:09:35.767Z,102268.60
2023-05-19T04:12:03.853Z,102264.60
2023-05-19T04:14:31.693Z,102257.60
2023-05-19T04:17:00.151Z,102260.20
2023-05-19T04:19:28.156Z,102256.20
2023-05-19T04:21:57.172Z,102257.20
2023-05-19T04:24:25.032Z,102261.00
2023-05-19T04:26:53.845Z,102255.80
2023-05-19T04:29:23.644Z,102250.80
2023-05-19T04:31:52.918Z,102254.20
2023-05-19T04:34:20.845Z,102252.00
2023-05-19T04:36:50.996Z,102246.00
2023-05-19T04:39:21.679Z,102247.80
2023-05-19T04:41:49.564Z,102250.00
2023-05-19T04:44:18.553Z,102247.00
2023-05-19T04:46:46.463Z,102249.80
2023-05-19T04:49:14.692Z,102247.80
2023-05-19T04:51:42.773Z,102250.60
2023-05-19T04:54:10.887Z,102253.60
2023-05-19T04:56:38.741Z,102250.40
2023-05-19T04:59:07.081Z,102253.60
2023-05-19T05:01:35.376Z,102259.60
2023-05-19T05:04:03.560Z,102255.80
2023-05-19T05:06:31.837Z,102258.20
2023-05-19T05:09:04.489Z,102257.80
2023-05-19T05:11:32.888Z,102263.20
2023-05-19T05:14:01.256Z,102264.60
2023-05-19T05:16:29.485Z,102264.00
2023-05-19T05:18:57.948Z,102265.00
2023-05-19T05:21:27.264Z,102270.60
2023-05-19T05:23:55.884Z,102260.20
2023-05-19T05:26:30.050Z,102268.60
2023-05-19T05:28:57.975Z,102259.00
2023-05-19T05:31:26.090Z,102258.00
2023-05-19T05:33:54.012Z,102258.00
2023-05-19T05:36:21.848Z,102257.40
2023-05-19T05:38:49.736Z,102257.60
2023-05-19T05:41:17.668Z,102256.60
2023-05-19T05:43:45.462Z,102258.60
2023-05-19T05:46:13.622Z,102260.60
2023-05-19T05:48:42.960Z,102261.00
2023-05-19T05:51:11.533Z,102263.20
2023-05-19T05:53:45.001Z,102263.20
2023-05-19T05:56:13.830Z,102259.00
2023-05-19T05:58:44.158Z,102260.80
2023-05-19T06:01:12.269Z,102264.60
2023-05-19T06:03:42.870Z,102265.20
2023-05-19T06:06:12.035Z,102269.40
2023-05-19T06:08:40.016Z,102269.20
2023-05-19T06:11:10.825Z,102267.40
2023-05-19T06:13:41.576Z,102271.80
2023-05-19T06:16:09.976Z,102274.00
2023-05-19T06:18:38.120Z,102277.00
2023-05-19T06:21:06.434Z,102278.80
2023-05-19T06:23:34.288Z,102276.00
2023-05-19T06:26:02.213Z,102278.40
2023-05-19T06:28:30.145Z,102276.00
2023-05-19T06:30:58.792Z,102280.60
2023-05-19T06:33:28.998Z,102280.20
2023-05-19T06:35:57.235Z,102280.40
2023-05-19T06:38:25.198Z,102284.00
2023-05-19T06:40:53.101Z,102286.60
2023-05-19T06:43:21.507Z,102291.80
2023-05-19T06:45:49.514Z,102279.20
2023-05-19T06:48:17.467Z,102283.00
2023-05-19T06:50:45.379Z,102280.20
2023-05-19T06:53:13.313Z,102276.60
2023-05-19T06:55:54.408Z,102275.00
2023-05-19T06:58:27.219Z,102273.00
2023-05-19T07:00:55.110Z,102274.40
2023-05-19T07:03:23.148Z,102273.00
2023-05-19T07:05:51.336Z,102267.20
2023-05-19T07:08:19.157Z,102274.00
2023-05-19T07:10:46.994Z,102274.60
2023-05-19T07:13:14.944Z,102268.00
2023-05-19T07:15:42.923Z,102266.80
2023-05-19T07:18:10.800Z,102270.00
2023-05-19T07:20:38.684Z,102264.80
2023-05-19T07:23:06.919Z,102268.80
2023-05-19T07:25:34.770Z,102268.00
2023-05-19T07:28:02.583Z,102269.00
2023-05-19T07:30:30.803Z,102262.00
2023-05-19T07:32:58.822Z,102264.60
2023-05-19T07:35:27.071Z,102259.60
2023-05-19T07:37:54.945Z,102261.40
2023-05-19T07:40:22.723Z,102267.80
2023-05-19T07:42:53.299Z,102265.60
2023-05-19T07:45:21.196Z,102270.20
2023-05-19T07:47:52.379Z,102278.20
2023-05-19T07:50:20.989Z,102280.40
2023-05-19T07:52:48.874Z,102282.40
2023-05-19T07:55:17.537Z,102275.20
2023-05-19T07:57:45.504Z,102276.00
2023-05-19T08:00:14.191Z,102281.20
2023-05-19T08:02:42.219Z,102275.20
2023-05-19T08:05:10.821Z,102271.00
2023-05-19T08:07:38.774Z,102272.80
2023-05-19T08:10:07.513Z,102280.00
2023-05-19T08:12:35.483Z,102275.20
2023-05-19T08:15:03.747Z,102273.20
2023-05-19T08:17:31.664Z,102270.00
2023-05-19T08:20:00.621Z,102266.40
2023-05-19T08:22:28.562Z,102265.20
2023-05-19T08:24:57.167Z,102261.60
2023-05-19T08:27:25.104Z,102257.40
2023-05-19T08:29:53.025Z,102260.00
2023-05-19T08:32:21.016Z,102264.60
2023-05-19T08:34:49.124Z,102268.40
2023-05-19T08:37:17.167Z,102269.00
2023-05-19T08:39:45.019Z,102271.00
2023-05-19T08:42:13.054Z,102264.40
2023-05-19T08:44:42.341Z,102264.80
2023-05-19T08:47:14.154Z,102265.00
2023-05-19T08:49:51.536Z,102265.80
2023-05-19T08:52:47.858Z,102272.20
2023-05-19T08:55:37.141Z,102262.40
2023-05-19T08:58:05.474Z,102261.60
2023-05-19T09:00:35.308Z,102263.00
2023-05-19T09:03:17.478Z,102263.80
2023-05-19T09:05:48.237Z,102270.00
2023-05-19T09:08:16.264Z,102275.80
2023-05-19T09:10:44.340Z,102276.40
2023-05-19T09:13:12.334Z,102277.40
2023-05-19T09:15:42.492Z,102275.80
2023-05-19T09:18:14.012Z,102272.80
2023-05-19T09:20:46.498Z,102273.80
2023-05-19T09:23:16.807Z,102271.00
2023-05-19T09:25:51.402Z,102265.80
2023-05-19T09:28:30.899Z,102257.80
2023-05-19T09:31:01.462Z,102264.20
2023-05-19T09:33:30.006Z,102264.40
2023-05-19T09:35:58.175Z,102261.00
2023-05-19T09:38:27.809Z,102263.60
2023-05-19T09:41:00.921Z,102267.80
2023-05-19T09:43:30.397Z,102259.00
2023-05-19T09:46:08.479Z,102262.60
2023-05-19T09:48:37.706Z,102255.00
2023-05-19T09:51:10.554Z,102252.80
2023-05-19T09:53:39.463Z,102251.60
2023-05-19T09:56:10.206Z,102254.00
2023-05-19T09:58:42.768Z,102256.40
2023-05-19T10:01:11.803Z,102253.00
2023-05-19T10:03:41.696Z,102257.20
2023-05-19T10:06:10.256Z,102258.40
2023-05-19T10:08:40.120Z,102252.80
2023-05-19T10:11:10.150Z,102257.20
2023-05-19T10:13:40.062Z,102260.80
2023-05-19T10:16:10.044Z,102257.80
2023-05-19T10:18:39.993Z,102253.40
2023-05-19T10:21:09.765Z,102253.60
2023-05-19T10:23:38.559Z,102253.20
2023-05-19T10:26:08.384Z,102255.40
2023-05-19T10:28:41.157Z,102245.00
2023-05-19T10:31:16.768Z,102249.80
2023-05-19T10:34:28.082Z,102247.20
2023-05-19T10:37:40.267Z,102248.20
2023-05-19T10:40:21.256Z,102247.00
2023-05-19T10:43:24.854Z,102251.00
2023-05-19T10:45:55.295Z,102252.20
2023-05-19T10:48:23.399Z,102252.20
2023-05-19T10:50:56.520Z,102253.00
2023-05-19T10:53:32.845Z,102257.80
2023-05-19T10:56:04.456Z,102256.00
2023-05-19T10:58:44.657Z,102255.60
2023-05-19T11:01:21.220Z,102256.40
2023-05-19T11:03:52.506Z,102255.00
2023-05-19T11:06:38.353Z,102253.80
2023-05-19T11:09:13.908Z,102249.60
2023-05-19T11:11:55.153Z,102249.40
2023-05-19T11:14:27.312Z,102256.40
2023-05-19T11:17:00.724Z,102248.00
2023-05-19T11:19:35.501Z,102253.20
2023-05-19T11:22:14.132Z,102252.80
2023-05-19T11:24:50.201Z,102252.60
2023-05-19T11:27:31.367Z,102244.60
2023-05-19T11:30:06.807Z,102250.00
2023-05-19T11:32:39.508Z,102254.00
2023-05-19T11:35:08.977Z,102253.80
2023-05-19T11:37:37.505Z,102258.40
2023-05-19T11:40:07.833Z,102261.20
2023-05-19T11:42:37.344Z,102263.40
2023-05-19T11:45:07.901Z,102255.20
2023-05-19T11:47:50.812Z,102262.20
2023-05-19T11:50:25.698Z,102263.20
2023-05-19T11:52:56.066Z,102263.60
2023-05-19T11:55:25.506Z,102267.40
2023-05-19T11:58:05.816Z,102267.20
2023-05-19T12:00:40.462Z,102273.00
2023-05-19T12:03:09.695Z,102278.60
2023-05-19T12:05:45.048Z,102283.00
2023-05-19T12:08:13.360Z,102284.00
2023-05-19T12:10:41.622Z,102291.80
2023-05-19T12:13:10.702Z,102290.80
2023-05-19T12:15:39.402Z,102298.40
2023-05-19T12:18:07.715Z,102296.40
2023-05-19T12:20:36.540Z,102304.00
2023-05-19T12:23:05.235Z,102312.20
2023-05-19T12:25:34.093Z,102301.00
2023-05-19T12:28:05.964Z,102304.60
2023-05-19T12:30:35.091Z,102310.40
2023-05-19T12:33:03.768Z,102307.80
2023-05-19T12:35:36.494Z,102313.60
2023-05-19T12:38:06.707Z,102313.80
2023-05-19T12:40:36.635Z,102315.60
2023-05-19T12:43:05.578Z,102317.60
2023-05-19T12:45:38.886Z,102321.60
2023-05-19T12:48:12.498Z,102316.60
2023-05-19T12:50:40.643Z,102315.00
2023-05-19T12:53:11.816Z,102313.40
2023-05-19T12:55:45.774Z,102310.00
2023-05-19T12:58:15.991Z,102308.00
2023-05-19T13:00:47.872Z,102304.60
2023-05-19T13:03:20.781Z,102303.40
2023-05-19T13:05:51.232Z,102306.80
2023-05-19T13:08:24.217Z,102302.40
2023-05-19T13:10:52.487Z,102306.40
2023-05-19T13:13:20.615Z,102311.60
2023-05-19T13:15:49.176Z,102311.40
2023-05-19T13:18:18.116Z,102304.00
2023-05-19T13:20:49.269Z,102304.20
2023-05-19T13:23:17.926Z,102300.20
2023-05-19T13:25:46.367Z,102303.60
2023-05-19T13:28:14.610Z,102303.00
2023-05-19T13:30:44.324Z,102302.00
2023-05-19T13:33:12.400Z,102292.20
2023-05-19T13:35:40.358Z,102289.00
2023-05-19T13:38:10.633Z,102290.60
2023-05-19T13:40:40.129Z,102285.00
2023-05-19T13:43:09.144Z,102283.40
2023-05-19T13:45:37.956Z,102285.40
2023-05-19T13:48:07.793Z,102291.60
2023-05-19T13:50:35.948Z,102288.40
2023-05-19T13:53:04.119Z,102286.20
2023-05-19T13:55:33.148Z,102281.00
2023-05-19T13:58:01.077Z,102291.00
2023-05-19T14:00:29.657Z,102294.20
2023-05-19T14:02:57.566Z,102290.20
2023-05-19T14:05:25.540Z,102286.40
2023-05-19T14:07:53.499Z,102289.20
2023-05-19T14:10:21.696Z,102284.40
2023-05-19T14:13:18.317Z,102282.20
2023-05-19T14:15:38.341Z,102283.80
2023-05-19T14:18:07.052Z,102293.00
2023-05-19T14:20:35.867Z,102295.80
2023-05-19T14:23:04.152Z,102298.80
2023-05-19T14:25:32.078Z,102297.80
2023-05-19T14:28:00.268Z,102301.80
2023-05-19T14:30:28.326Z,102306.80
2023-05-19T14:32:56.293Z,102315.60
2023-05-19T14:35:25.634Z,102317.00
2023-05-19T14:37:53.877Z,102312.00
2023-05-19T14:40:22.061Z,102313.00
2023-05-19T14:42:50.341Z,102310.60
2023-05-19T14:45:19.883Z,102307.40
2023-05-19T14:47:49.037Z,102304.40
2023-05-19T14:50:17.262Z,102299.80
2023-05-19T14:52:46.808Z,102295.00
2023-05-19T14:55:16.756Z,102289.40
2023-05-19T14:57:46.641Z,102290.40
2023-05-19T15:00:15.417Z,102291.00
2023-05-19T15:02:46.789Z,102298.40
2023-05-19T15:05:16.499Z,102292.40
2023-05-19T15:07:48.023Z,102291.00
2023-05-19T15:10:23.801Z,102285.20
2023-05-19T15:13:00.847Z,102280.60
2023-05-19T15:15:28.987Z,102280.00
2023-05-19T15:17:57.362Z,102279.20
2023-05-19T15:20:27.445Z,102278.00
2023-05-19T15:22:57.628Z,102278.60
2023-05-19T15:25:26.268Z,102276.20
2023-05-19T15:27:56.553Z,102276.60
2023-05-19T15:30:24.906Z,102273.60
2023-05-19T15:32:53.255Z,102269.80
2023-05-19T15:35:23.028Z,102266.60
2023-05-19T15:37:52.680Z,102265.80
2023-05-19T15:40:22.213Z,102268.00
2023-05-19T15:42:57.718Z,102268.20
2023-05-19T15:45:27.426Z,102267.40
2023-05-19T15:47:56.442Z,102273.40
2023-05-19T15:50:26.944Z,102273.00
2023-05-19T15:52:55.087Z,102272.00
2023-05-19T15:55:23.237Z,102276.60
2023-05-19T15:57:51.469Z,102272.00
2023-05-19T16:00:22.916Z,102274.60
2023-05-19T16:02:56.329Z,102272.80
2023-05-19T16:05:26.896Z,102275.00
2023-05-19T16:08:08.539Z,102266.40
2023-05-19T16:10:51.864Z,102260.00
2023-05-19T16:13:29.182Z,102256.80
2023-05-19T16:15:57.379Z,102255.80
2023-05-19T16:18:29.653Z,102253.00
2023-05-19T16:20:58.141Z,102253.60
2023-05-19T16:23:41.252Z,102253.40
2023-05-19T16:26:11.507Z,102248.60
2023-05-19T16:28:39.672Z,102254.60
2023-05-19T16:31:10.362Z,102256.20
2023-05-19T16:33:42.279Z,102243.40
2023-05-19T16:36:10.360Z,102247.60
2023-05-19T16:38:43.789Z,102248.20
2023-05-19T16:41:12.352Z,102245.40
2023-05-19T16:43:43.925Z,102247.00
2023-05-19T16:46:12.436Z,102248.60
2023-05-19T16:48:41.063Z,102249.80
2023-05-19T16:51:09.060Z,102249.60
2023-05-19T16:53:37.008Z,102256.20
2023-05-19T16:56:06.449Z,102257.60
2023-05-19T16:58:35.074Z,102258.80
2023-05-19T17:01:04.206Z,102258.00
2023-05-19T17:03:32.360Z,102258.20
2023-05-19T17:06:01.060Z,102250.20
2023-05-19T17:08:29.071Z,102253.60
2023-05-19T17:10:57.065Z,102249.60
2023-05-19T17:13:24.921Z,102255.60
2023-05-19T17:15:52.957Z,102256.80
2023-05-19T17:18:21.321Z,102248.00
2023-05-19T17:20:49.236Z,102253.60
2023-05-19T17:23:17.136Z,102251.00
2023-05-19T17:25:45.258Z,102249.20
2023-05-19T17:28:13.122Z,102254.20
2023-05-19T17:30:41.590Z,102253.20
2023-05-19T17:33:10.621Z,102249.00
2023-05-19T17:35:43.653Z,102248.80
2023-05-19T17:38:17.725Z,102254.60
2023-05-19T17:40:51.177Z,102253.60
2023-05-19T17:43:19.429Z,102248.80
2023-05-19T17:45:50.569Z,102248.20
2023-05-19T17:48:18.884Z,102252.00
2023-05-19T17:50:52.383Z,102247.80
2023-05-19T17:53:24.594Z,102246.20
2023-05-19T17:56:00.868Z,102241.60
2023-05-19T17:58:30.156Z,102243.60
2023-05-19T18:01:01.802Z,102246.20
2023-05-19T18:03:30.334Z,102246.60
2023-05-19T18:06:00.614Z,102247.60
2023-05-19T18:08:31.526Z,102242.40
2023-05-19T18:11:00.826Z,102242.40
2023-05-19T18:13:28.694Z,102239.20
2023-05-19T18:16:04.187Z,102242.00
2023-05-19T18:18:34.714Z,102243.80
2023-05-19T18:21:07.332Z,102247.20
2023-05-19T18:23:37.116Z,102236.20
2023-05-19T18:26:07.792Z,102238.60
2023-05-19T18:28:35.917Z,102230.60
2023-05-19T18:31:06.170Z,102236.80
2023-05-19T18:33:39.321Z,102238.40
2023-05-19T18:36:19.090Z,102242.20
2023-05-19T18:38:50.942Z,102245.20
2023-05-19T18:41:32.362Z,102251.20
2023-05-19T18:44:01.502Z,102256.40
2023-05-19T18:46:41.455Z,102255.40
2023-05-19T18:49:11.736Z,102253.00
2023-05-19T18:51:48.816Z,102261.80
2023-05-19T18:54:26.414Z,102257.40
2023-05-19T18:56:59.500Z,102259.00
2023-05-19T18:59:30.640Z,102254.60
2023-05-19T19:02:03.816Z,102251.80
2023-05-19T19:04:32.006Z,102261.00
2023-05-19T19:07:02.529Z,102257.20
2023-05-19T19:09:30.786Z,102257.40
2023-05-19T19:11:58.695Z,102259.60
2023-05-19T19:14:28.085Z,102258.20
2023-05-19T19:17:00.111Z,102254.00
2023-05-19T19:19:30.659Z,102257.80
2023-05-19T19:22:01.486Z,102262.80
2023-05-19T19:24:43.342Z,102262.40
2023-05-19T19:27:21.610Z,102262.60
2023-05-19T19:29:50.175Z,102259.00
2023-05-19T19:32:23.262Z,102260.80
2023-05-19T19:34:55.928Z,102256.20
2023-05-19T19:37:24.164Z,102253.60
2023-05-19T19:39:52.509Z,102255.00
2023-05-19T19:42:23.676Z,102254.20
2023-05-19T19:44:59.065Z,102258.00
2023-05-19T19:47:27.823Z,102257.20
2023-05-19T19:49:56.371Z,102260.60
2023-05-19T19:52:25.995Z,102264.60
2023-05-19T19:54:58.871Z,102256.20
2023-05-19T19:57:28.842Z,102262.00
2023-05-19T20:00:00.546Z,102261.20
2023-05-19T20:02:28.902Z,102253.60
2023-05-19T20:04:57.198Z,102255.60
2023-05-19T20:07:25.242Z,102256.40
2023-05-19T20:09:53.401Z,102260.40
2023-05-19T20:12:25.521Z,102262.80
2023-05-19T20:14:54.238Z,102266.60
2023-05-19T20:17:22.490Z,102261.60
2023-05-19T20:19:50.384Z,102256.40
2023-05-19T20:22:18.356Z,102261.20
2023-05-19T20:24:46.334Z,102263.40
2023-05-19T20:27:14.210Z,102264.80
2023-05-19T20:29:42.653Z,102270.80
2023-05-19T20:32:11.348Z,102265.20
2023-05-19T20:34:39.226Z,102272.40
2023-05-19T20:37:07.102Z,102272.40
2023-05-19T20:39:35.053Z,102273.00
2023-05-19T20:42:02.862Z,102270.20
2023-05-19T20:44:30.704Z,102274.20
2023-05-19T20:46:58.800Z,102268.80
2023-05-19T20:49:26.591Z,102274.60
2023-05-19T20:51:54.449Z,102279.20
2023-05-19T20:54:22.446Z,102278.80
2023-05-19T20:56:51.994Z,102273.80
2023-05-19T20:59:19.910Z,102276.20
2023-05-19T21:01:48.093Z,102275.20
2023-05-19T21:04:16.127Z,102275.40
2023-05-19T21:06:44.115Z,102280.20
2023-05-19T21:09:12.170Z,102275.60
2023-05-19T21:11:40.111Z,102278.20
2023-05-19T21:14:08.663Z,102274.80
2023-05-19T21:16:38.964Z,102276.20
2023-05-19T21:19:07.190Z,102275.60
2023-05-19T21:21:35.114Z,102277.80
2023-05-19T21:24:03.032Z,102272.20
2023-05-19T21:26:30.941Z,102268.00
2023-05-19T21:28:58.788Z,102262.00
2023-05-19T21:31:26.731Z,102263.40
2023-05-19T21:33:54.681Z,102262.80
2023-05-19T21:36:23.313Z,102263.20
2023-05-19T21:38:51.186Z,102259.40
2023-05-19T21:41:19.009Z,102261.60
2023-05-19T21:43:47.267Z,102255.60
2023-05-19T21:46:17.836Z,102255.20
2023-05-19T21:48:45.706Z,102252.20
2023-05-19T21:51:13.748Z,102250.60
2023-05-19T21:53:41.996Z,102254.40
2023-05-19T21:56:09.896Z,102250.40
2023-05-19T21:58:37.860Z,102255.40
2023-05-19T22:01:05.906Z,102256.00
2023-05-19T22:03:33.947Z,102252.00
2023-05-19T22:06:01.906Z,102254.20
2023-05-19T22:08:31.034Z,102256.40
2023-05-19T22:10:59.568Z,102256.60
2023-05-19T22:13:27.459Z,102265.20
2023-05-19T22:15:55.464Z,102266.40
2023-05-19T22:18:23.548Z,102265.20
2023-05-19T22:20:51.442Z,102264.60
2023-05-19T22:23:19.299Z,102264.00
2023-05-19T22:25:47.173Z,102259.20
2023-05-19T22:28:15.218Z,102261.20
2023-05-19T22:30:44.277Z,102261.60
2023-05-19T22:33:13.163Z,102250.80
2023-05-19T22:35:42.178Z,102251.60
2023-05-19T22:38:10.600Z,102254.40
2023-05-19T22:40:39.189Z,102252.20
2023-05-19T22:43:07.365Z,102256.00
2023-05-19T22:45:36.684Z,102254.60
2023-05-19T22:48:05.323Z,102250.00
2023-05-19T22:50:33.234Z,102251.80
2023-05-19T22:53:01.203Z,102257.40
2023-05-19T22:55:29.056Z,102252.00
2023-05-19T22:57:56.946Z,102254.80
2023-05-19T23:00:24.838Z,102250.80
2023-05-19T23:02:52.886Z,102246.40
2023-05-19T23:05:20.941Z,102238.20
2023-05-19T23:07:49.009Z,102231.20
2023-05-19T23:10:16.996Z,102232.40
2023-05-19T23:12:44.924Z,102220.60
2023-05-19T23:15:12.855Z,102220.00
2023-05-19T23:17:43.239Z,102217.40
2023-05-19T23:20:12.991Z,102215.80
2023-05-19T23:22:41.135Z,102224.20
2023-05-19T23:25:09.360Z,102232.60
2023-05-19T23:27:37.226Z,102240.00
2023-05-19T23:30:06.163Z,102246.00
2023-05-19T23:32:33.994Z,102247.40
2023-05-19T23:35:17.473Z,102248.60
2023-05-19T23:37:45.599Z,102251.60
2023-05-19T23:40:14.023Z,102257.20
2023-05-19T23:42:41.902Z,102256.00
2023-05-19T23:45:10.069Z,102251.00
2023-05-19T23:47:38.195Z,102250.20
2023-05-19T23:50:06.674Z,102250.40
2023-05-19T23:52:34.594Z,102251.60
2023-05-19T23:55:03.663Z,102256.40
2023-05-19T23:57:31.574Z,102255.20
